MAPA DE AEROPUERTO

INFORMACIÓN METAR y TAF


Deprecated: The each() function is deprecated. This message will be suppressed on further calls in /home/customer/www/clickair-va.com/public_html/VAM/vam/helpers/get_metar.php on line 20
METAR FOR GCTS
ADDS - METARS form results

(0411 UTC 25 May 2022)
Data provider http://aviationweather.gov/metar/data/
 
METAR text: GCTS 250400Z 04007KT 9999 SCT025 19/14 Q1018 NOSIG
Conditions at: GCTS (TENERIFE SUR/REI, ES) observed 0400 UTC 25 May 2022
Temperature: 19.0°C (66°F)
Dewpoint: 14.0°C (57°F) [RH = 73%]
Pressure (altimeter): 30.06 inches Hg (1018.0 mb)
Winds: from the NE (40 degrees) at 8 MPH (7 knots; 3.6 m/s)
Visibility: 6 or more miles (10+ km)
Ceiling: at least 12,000 feet AGL
Clouds: scattered clouds at 2500 feet AGL
Weather: no significant weather observed at this time

METAR text: GCTS 250330Z 04007KT 360V070 9999 SCT035 19/12 Q1017 NOSIG
Conditions at: GCTS (TENERIFE SUR/REI, ES) observed 0330 UTC 25 May 2022
Temperature: 19.0°C (66°F)
Dewpoint: 12.0°C (54°F) [RH = 64%]
Pressure (altimeter): 30.03 inches Hg (1017.0 mb)
Winds: from the NE (40 degrees) at 8 MPH (7 knots; 3.6 m/s)
Visibility: 6 or more miles (10+ km)
Ceiling: at least 12,000 feet AGL
Clouds: scattered clouds at 3500 feet AGL
Weather: no significant weather observed at this time

Forecast for: GCTS (TENERIFE SUR/REI, ES)
Text: TAF GCTS 250200Z 2503/2603 03013KT 9999 SCT030 TX26/2514Z TN18/2506Z
Forecast period: 0300 to 0800 UTC 25 May 2022
Forecast type: FROM: standard forecast or significant change
Winds: from the NNE (30 degrees) at 15 MPH (13 knots; 6.7 m/s)
Visibility: 6 or more miles (10+ km)
Ceiling: at least 12,000 feet AGL
Clouds: scattered clouds at 3000 feet AGL
Weather: no significant weather forecast for this period
Text: BECMG 2508/2510 10020KT
Forecast period: 0800 UTC 25 May 2022 to 0300 UTC 26 May 2022
Forecast type: BECOMING: Conditions expected to become as follows by 1000 UTC 25 May 2022
Winds: from the E (100 degrees) at 23 MPH (20 knots; 10.3 m/s)
Visibility: 6 or more miles (10+ km)
Ceiling: at least 12,000 feet AGL
Clouds: scattered clouds at 3000 feet AGL
Weather: no significant weather forecast for this period
Text: PROB30
Forecast period: 1200 to 1800 UTC 25 May 2022
Forecast type: TEMPORARY: The following changes expected for less than half the time period
Winds: from the E (90 degrees) at 23 MPH (20 knots; 10.3 m/s)
gusting to 34 MPH (30 knots; 15.4 m/s)
Visibility: missing
Ceiling: unknown
Clouds: missing
Weather: no significant weather forecast for this period